• Join FlightAware (Why Join?)
  • Login
  • US Flag 
01:44AM EDT


 

Airport Tracker/Info


-or-


 

Live Flight TrackerFlight Track Log ✈ ASQ5958 ✈ 07-May-2013 ✈ KORD - KTYS

Flight Track Log - Related Links

Times and Time Zones

All times are in EDT time to prevent confusion due to time zone crossing. See the ASQ5958 flight status page for this flight to view local times or setup timezone preferences in your user account.

Time Position Orientation Groundspeed Altitude Reporting Facility
EDT Latitude Longitude Course Direction KTS MPH feet Rate Location/Type
06:48PM 41.9667 -87.8333 169° South 200 230 2,700  Level Chicago TRACON
06:50PM 41.8692 -87.7711 155° Southeast 258 297 5,100 780 Climbing Chicago Center
06:51PM 41.7942 -87.7669 178° South 266 306 5,000 840 Descending Chicago Center
06:52PM 41.7269 -87.8061 204° Southwest 269 310 6,900 2,160 Climbing Chicago Center
06:53PM 41.6422 -87.7881 171° South 283 326 9,500 2,160 Climbing Chicago Center
06:54PM 41.4398 -87.5306 169° South  Level Estimated
06:54PM 41.5758 -87.7244 144° Southeast 294 338 11,400  Level Chicago Center
06:55PM 41.5078 -87.6547 142° Southeast 304 350 13,200 1,200 Climbing Chicago Center
06:56PM 41.4350 -87.5839 144° Southeast 319 367 14,000 1,080 Climbing Chicago Center
06:57PM 41.3386 -87.5583 169° South 354 407 15,500 1,200 Climbing Chicago Center
06:58PM 41.2397 -87.5400 172° South 356 410 16,600 1,020 Climbing Chicago Center
06:59PM 41.1181 -87.5114 170° South 368 423 17,700 960 Climbing Chicago Center
07:00PM 41.0139 -87.4833 169° South 379 436 18,700 900 Climbing Chicago Center
07:01PM 40.9072 -87.4544 168° South 388 447 19,600 840 Climbing Chicago Center
07:03PM 40.7981 -87.4236 168° South 400 460 20,500 960 Climbing Chicago Center
07:04PM 40.6981 -87.3606 154° Southeast 400 460 21,700 1,200 Climbing Chicago Center
07:05PM 40.5997 -87.2969 154° Southeast 397 457 23,000 1,260 Climbing Chicago Center
07:06PM 40.4836 -87.2211 154° Southeast 390 449 24,400 1,200 Climbing Chicago Center
07:07PM 40.3983 -87.1656 154° Southeast 390 449 25,500 1,200 Climbing Chicago Center
07:08PM 40.2264 -87.0547 154° Southeast 380 437 27,700 1,260 Climbing Indianapolis Center
07:09PM 40.1897 -87.0317 154° Southeast 379 436 28,200 900 Climbing Chicago Center
07:10PM 40.0972 -86.9722 154° Southeast 374 430 29,100 900 Climbing Chicago Center
07:10PM 40.0397 -86.9350 154° Southeast 375 432 29,700 960 Climbing Indianapolis Center
07:11PM 39.9475 -86.8706 152° Southeast 378 435 30,700 900 Climbing Indianapolis Center
07:12PM 39.8581 -86.7975 148° Southeast 381 438 31,600 960 Climbing Indianapolis Center
07:13PM 39.7508 -86.7086 147° Southeast 384 442 32,800 960 Climbing Indianapolis Center
07:15PM 39.6828 -86.6075 131° Southeast 378 435 33,700 900 Climbing Indianapolis Center
07:16PM 39.6308 -86.4894 120° Southeast 382 440 34,700 600 Climbing Indianapolis Center
07:17PM 39.5792 -86.3717 120° Southeast 383 441 35,000 120 Climbing Indianapolis Center
07:18PM 39.5142 -86.2225 119° Southeast 400 460 35,000 180 Level Indianapolis Center
07:19PM 39.4583 -86.0947 119° Southeast 411 473 35,400 780 Climbing Indianapolis Center
07:20PM 39.4033 -85.9717 120° Southeast 401 461 36,700 720 Climbing Indianapolis Center
07:21PM 39.3508 -85.8517 119° Southeast 387 445 37,000 120 Climbing Indianapolis Center
07:22PM 39.2969 -85.7283 119° Southeast 396 456 37,000  Level Indianapolis Center
07:23PM 39.2275 -85.5753 120° Southeast 411 473 37,000  Level Indianapolis Center
07:24PM 39.1675 -85.4494 122° Southeast 413 475 37,000  Level Indianapolis Center
07:25PM 39.0622 -85.3836 154° Southeast 426 490 37,000 -300 Level Indianapolis Center
07:26PM 38.9503 -85.3328 161° South 427 491 36,400 -780 Descending Indianapolis Center
07:27PM 38.8342 -85.2817 161° South 438 504 35,400 -720 Descending Indianapolis Center
07:28PM 38.7181 -85.2297 161° South 442 509 35,000 -240 Descending Indianapolis Center
07:29PM 38.5978 -85.1764 161° South 428 493 35,000  Level Indianapolis Center
07:30PM 38.4617 -85.1164 161° South 442 509 35,000  Level Indianapolis Center
07:31PM 38.3433 -85.0647 161° South 448 516 35,000  Level Indianapolis Center
07:32PM 38.2239 -85.0122 161° South 453 521 35,000  Level Indianapolis Center
07:33PM 38.1058 -84.9603 161° South 450 518 35,000  Level Indianapolis Center
07:34PM 37.9883 -84.9108 162° South 447 514 35,000  Level Indianapolis Center
07:35PM 37.8717 -84.8594 161° South 444 511 35,000  Level Indianapolis Center
07:36PM 37.7372 -84.7992 160° South 440 506 35,000  Level Indianapolis Center
07:37PM 37.6203 -84.7492 161° South 442 509 35,000 -1,020 Level Indianapolis Center
07:38PM 37.5019 -84.7000 162° South 445 512 32,900 -2,340 Descending Indianapolis Center
07:39PM 37.3828 -84.6508 162° South 449 517 30,300 -2,340 Descending Indianapolis Center
07:40PM 37.2636 -84.5981 161° South 452 520 28,200 -2,160 Descending Indianapolis Center
07:41PM 37.1367 -84.5458 162° South 472 543 25,900 -2,640 Descending Indianapolis Center
07:42PM 36.9908 -84.4833 161° South 474 545 22,900 -2,700 Descending Indianapolis Center
07:43PM 36.8722 -84.4331 161° South 457 526 20,400 -2,400 Descending Indianapolis Center
07:44PM 36.7583 -84.3861 162° South 437 503 18,000 -2,220 Descending Indianapolis Center
07:45PM 36.6461 -84.3392 161° South 428 493 15,900 -2,040 Descending Indianapolis Center
07:46PM 36.5397 -84.2939 161° South 410 472 13,900 -2,040 Descending Indianapolis Center
07:47PM 36.4267 -84.2469 162° South 387 445 11,800 -1,440 Descending Indianapolis Center
07:49PM 36.3339 -84.2086 162° South 363 418 11,000 -420 Descending Indianapolis Center
07:50PM 36.2231 -84.1647 162° South 362 417 10,900 -780 Descending Atlanta Center
07:51PM 36.1397 -84.1339 163° South 339 390 9,400 -1,500 Descending Atlanta Center
07:52PM 36.0728 -84.1031 160° South 321 369 8,000 -1,620 Descending Atlanta Center
07:53PM 36.0144 -84.0361 137° Southeast 280 322 6,200 -1,800 Descending Atlanta Center
07:54PM 35.9581 -83.9719 137° Southeast 280 322 4,500 -1,680 Descending Atlanta Center
07:55PM 35.9017 -83.9258 146° Southeast 264 304 2,900 -1,200 Descending Atlanta Center
07:56PM 35.8581 -83.9311 186° South 191 220 2,100 -840 Descending Atlanta Center